KFSI

Henry Post AAF (Fort Sill) Airport

Fort Sill, Oklahoma, USA
METAR KFSI 141656Z AUTO 36019G27KT 10SM BKN019 07/02 A3013 RMK AO2 PK WND 34029/23 SLP206 T00660021
Observed Flight Rules
Dec-14 @ 16:56 UTC (9 minutes ago) Marginal Visual Flight Rules
Wind Visibility Clouds
360° at 19 knots
 Gusting to 27 knots
10 miles
  • Broken at 1,900' AGL
Temperatures Readings
Current 7°C / 45°F
Dewpoint 2°C / 36°F
Humidity 71%
Altimeter 30.13" Hg
Pressure 1020.6 hPa
Elevation 362
METAR KFSI 141656Z AUTO 36019G27KT 10SM BKN019 07/02 A3013 RMK AO2 PK WND 34029/23 SLP206 T00660021
Observed Flight Rules
Dec-14 @ 16:56 UTC
(9 minutes ago)
MVFR
Wind Visibility
360° at 19 knots
 Gusting to 27 knots
10 miles
Clouds
  • Broken at 1,900' AGL
Temperature Dewpoint
7°C / 45°F 2°C / 36°F
Humidity Altimeter Pressure
71% 30.13" Hg 1020.6 hPa